createdAt,value
2016-09-16T00:00:33.760Z,78.79
2016-09-16T00:01:44.763Z,79.46
2016-09-16T00:02:55.769Z,79.46
2016-09-16T00:04:06.973Z,79.17
2016-09-16T00:05:17.979Z,78.59
2016-09-16T00:06:29.179Z,79.46
2016-09-16T00:07:40.187Z,78.88
2016-09-16T00:08:51.390Z,78.79
2016-09-16T00:10:02.389Z,79.08
2016-09-16T00:11:13.449Z,79.36
2016-09-16T00:12:24.464Z,79.52
2016-09-16T00:13:35.667Z,79.17
2016-09-16T00:14:46.682Z,79.17
2016-09-16T00:15:57.672Z,79.71
2016-09-16T00:17:08.748Z,80.23
2016-09-16T00:18:19.747Z,79.85
2016-09-16T00:19:30.782Z,80.19
2016-09-16T00:20:41.995Z,79.81
2016-09-16T00:21:52.997Z,79.71
2016-09-16T00:23:04.003Z,79.81
2016-09-16T00:24:15.023Z,80.38
2016-09-16T00:25:26.035Z,79.9
2016-09-16T00:26:37.037Z,80.77
2016-09-16T00:27:48.040Z,80.19
2016-09-16T00:28:59.242Z,80
2016-09-16T00:30:10.247Z,80.19
2016-09-16T00:31:21.275Z,80.77
2016-09-16T00:32:32.272Z,80.19
2016-09-16T00:33:43.479Z,80.68
2016-09-16T00:34:54.489Z,80.38
2016-09-16T00:36:05.500Z,80.58
2016-09-16T00:37:16.514Z,80.77
2016-09-16T00:38:27.513Z,81.16
2016-09-16T00:39:38.517Z,81.25
2016-09-16T00:40:49.527Z,81.25
2016-09-16T00:42:00.533Z,81.06
2016-09-16T00:43:11.537Z,80.96
2016-09-16T00:44:22.565Z,81.25
2016-09-16T00:45:33.571Z,81.06
2016-09-16T00:46:44.982Z,81.54
2016-09-16T00:47:55.988Z,81.63
2016-09-16T00:49:06.985Z,82.31
2016-09-16T00:50:17.987Z,81.25
2016-09-16T00:51:28.996Z,81.54
2016-09-16T00:52:40.008Z,82.89
2016-09-16T00:53:51.012Z,82.41
2016-09-16T00:55:02.419Z,81.83
2016-09-16T00:56:13.424Z,82.79
2016-09-16T00:57:24.430Z,82.41
2016-09-16T00:58:35.434Z,83.23
2016-09-16T00:59:46.455Z,83.33
2016-09-16T01:00:57.480Z,83.14
2016-09-16T01:02:08.488Z,82.75
2016-09-16T01:03:19.488Z,82.65
2016-09-16T01:04:30.496Z,83.23
2016-09-16T01:05:41.498Z,83.62
2016-09-16T01:06:52.496Z,83.04
2016-09-16T01:08:03.703Z,83.33
2016-09-16T01:09:14.709Z,83.52
2016-09-16T01:10:25.716Z,83.52
2016-09-16T01:11:36.763Z,84.39
2016-09-16T01:12:47.973Z,84.1
2016-09-16T01:13:58.979Z,85.35
2016-09-16T01:15:09.975Z,84.39
2016-09-16T01:16:21.185Z,83.81
2016-09-16T01:17:32.202Z,84.97
2016-09-16T01:18:43.216Z,84.58
2016-09-16T01:19:54.216Z,84.97
2016-09-16T01:21:05.421Z,84.97
2016-09-16T01:22:16.428Z,85.06
2016-09-16T01:23:27.446Z,85.74
2016-09-16T01:24:38.448Z,84.73
2016-09-16T01:25:49.453Z,85.98
2016-09-16T01:27:00.656Z,86.69
2016-09-16T01:28:11.675Z,85.5
2016-09-16T01:29:22.675Z,85.78
2016-09-16T01:30:33.674Z,86.36
2016-09-16T01:31:44.676Z,86.08
2016-09-16T01:32:55.895Z,86.56
2016-09-16T01:34:06.908Z,86.65
2016-09-16T01:35:17.922Z,86.75
2016-09-16T01:36:28.932Z,87.13
2016-09-16T01:37:39.940Z,87.52
2016-09-16T01:38:50.942Z,87.13
2016-09-16T01:40:01.947Z,87.13
2016-09-16T01:41:12.963Z,87.71
2016-09-16T01:42:23.963Z,87.71
2016-09-16T01:43:34.958Z,87.62
2016-09-16T01:44:45.957Z,87.42
2016-09-16T01:45:56.963Z,87.71
2016-09-16T01:47:07.976Z,87.67
2016-09-16T01:48:18.978Z,87.62
2016-09-16T01:49:29.986Z,87.38
2016-09-16T01:50:40.999Z,88.34
2016-09-16T01:51:52.016Z,88.92
2016-09-16T01:53:03.022Z,88.15
2016-09-16T01:54:14.031Z,88.92
2016-09-16T01:55:25.236Z,88.63
2016-09-16T01:56:36.246Z,89.11
2016-09-16T01:57:47.254Z,89.01
2016-09-16T01:58:58.265Z,90.26
2016-09-16T02:00:09.277Z,89.21
2016-09-16T02:01:20.288Z,88.34
2016-09-16T02:02:31.284Z,90.36
2016-09-16T02:03:42.698Z,88.34
2016-09-16T02:04:53.704Z,88.82
2016-09-16T02:06:04.714Z,89.3
2016-09-16T02:07:15.730Z,89.4
2016-09-16T02:08:26.938Z,89.78
2016-09-16T02:09:38.140Z,89.21
2016-09-16T02:10:49.152Z,88.63
2016-09-16T02:12:00.207Z,89.88
2016-09-16T02:13:11.214Z,90.26
2016-09-16T02:14:22.216Z,91.13
2016-09-16T02:15:33.218Z,91.42
2016-09-16T02:16:44.220Z,92.09
2016-09-16T02:17:55.219Z,91.99
2016-09-16T02:19:06.216Z,92.62
2016-09-16T02:20:17.222Z,94.83
2016-09-16T02:21:28.233Z,95.98
2016-09-16T02:22:39.229Z,94.73
2016-09-16T02:23:50.235Z,95.6
2016-09-16T02:25:01.245Z,95.6
2016-09-16T02:26:12.255Z,95.03
2016-09-16T02:27:23.257Z,98.14
2016-09-16T02:28:34.286Z,96.13
2016-09-16T02:29:45.294Z,94.78
2016-09-16T02:30:56.302Z,93.44
2016-09-16T02:32:07.306Z,95.36
2016-09-16T02:33:18.305Z,95.55
2016-09-16T02:34:29.342Z,95.45
2016-09-16T02:35:40.343Z,94.98
2016-09-16T02:36:51.341Z,92.77
2016-09-16T02:38:02.341Z,94.69
2016-09-16T02:39:13.340Z,94.98
2016-09-16T02:40:24.341Z,94.49
2016-09-16T02:41:35.341Z,95.07
2016-09-16T02:42:46.539Z,95.94
2016-09-16T02:43:57.542Z,97.19
2016-09-16T02:45:08.546Z,96.42
2016-09-16T02:46:19.544Z,96.7
2016-09-16T02:47:30.547Z,99.4
2016-09-16T02:48:41.563Z,99.99
2016-09-16T02:49:52.569Z,99.99
2016-09-16T02:51:03.583Z,98
2016-09-16T02:52:14.599Z,98.1
2016-09-16T02:53:25.603Z,98.38
2016-09-16T02:54:36.614Z,96.27
2016-09-16T02:55:47.623Z,97.24
2016-09-16T02:56:58.625Z,96.75
2016-09-16T02:58:09.832Z,95.31
2016-09-16T02:59:20.830Z,96.85
2016-09-16T03:00:31.826Z,97.24
2016-09-16T03:01:42.831Z,94.83
2016-09-16T03:02:53.842Z,96.27
2016-09-16T03:04:04.843Z,97.24
2016-09-16T03:05:15.853Z,98
2016-09-16T03:06:26.873Z,99.99
2016-09-16T03:07:37.879Z,99.99
2016-09-16T03:08:48.873Z,99.99
2016-09-16T03:09:59.874Z,99.99
2016-09-16T03:11:10.878Z,99.99
2016-09-16T03:12:21.878Z,99.99
2016-09-16T03:13:33.075Z,99.99
2016-09-16T03:14:44.084Z,99.99
2016-09-16T03:15:55.089Z,99.99
2016-09-16T03:17:06.096Z,99.99
2016-09-16T03:18:17.106Z,99.99
2016-09-16T03:19:28.302Z,99.99
2016-09-16T03:20:39.320Z,99.99
2016-09-16T03:21:50.328Z,99.99
2016-09-16T03:23:01.335Z,99.99
2016-09-16T03:24:12.339Z,99.99
2016-09-16T03:25:23.369Z,99.99
2016-09-16T03:26:34.365Z,99.99
2016-09-16T03:27:45.360Z,99.99
2016-09-16T03:28:56.371Z,99.99
2016-09-16T03:30:07.377Z,99.99
2016-09-16T03:31:18.373Z,99.99
2016-09-16T03:32:29.568Z,99.99
2016-09-16T03:33:40.769Z,99.99
2016-09-16T03:34:51.980Z,99.99
2016-09-16T03:36:02.974Z,99.99
2016-09-16T03:37:13.996Z,99.99
2016-09-16T03:38:25.002Z,99.99
2016-09-16T03:39:36.014Z,99.99
2016-09-16T03:40:47.228Z,99.99
2016-09-16T03:41:58.227Z,99.99
2016-09-16T03:43:09.437Z,99.99
2016-09-16T03:44:20.652Z,99.99
2016-09-16T03:45:31.655Z,99.99
2016-09-16T03:46:42.665Z,99.99
2016-09-16T03:47:53.675Z,99.99
2016-09-16T03:49:04.697Z,99.99
2016-09-16T03:50:15.898Z,99.99
2016-09-16T03:51:26.906Z,99.99
2016-09-16T03:52:38.111Z,99.99
2016-09-16T03:53:49.115Z,99.99
2016-09-16T03:55:00.145Z,99.99
2016-09-16T03:56:11.149Z,99.99
2016-09-16T03:57:22.152Z,99.99
2016-09-16T03:58:33.373Z,99.99
2016-09-16T03:59:44.385Z,99.99
2016-09-16T04:00:55.393Z,99.99
2016-09-16T04:02:06.396Z,99.99
2016-09-16T04:03:17.393Z,99.99
2016-09-16T04:04:28.400Z,99.99
2016-09-16T04:05:39.404Z,99.99
2016-09-16T04:06:50.409Z,99.99
2016-09-16T04:08:01.413Z,99.99
2016-09-16T04:09:12.417Z,99.99
2016-09-16T04:10:23.437Z,99.99
2016-09-16T04:11:34.456Z,99.99
2016-09-16T04:12:45.460Z,99.99
2016-09-16T04:13:56.462Z,99.99
2016-09-16T04:15:07.472Z,99.99
2016-09-16T04:16:18.492Z,99.99
2016-09-16T04:17:29.499Z,99.99
2016-09-16T04:18:40.498Z,99.99
2016-09-16T04:19:51.502Z,99.99
2016-09-16T04:21:02.505Z,99.99
2016-09-16T04:22:13.516Z,99.99
2016-09-16T04:23:24.572Z,99.99
2016-09-16T04:24:35.580Z,99.99
2016-09-16T04:25:46.984Z,99.99
2016-09-16T04:26:57.988Z,99.99
2016-09-16T04:28:08.984Z,99.99
2016-09-16T04:29:20.187Z,99.99
2016-09-16T04:30:31.192Z,99.99
2016-09-16T04:31:42.199Z,99.99
2016-09-16T04:32:53.211Z,99.99
2016-09-16T04:34:04.226Z,99.99
2016-09-16T04:35:15.443Z,99.99
2016-09-16T04:36:26.440Z,99.99
2016-09-16T04:37:37.456Z,99.99
2016-09-16T04:38:48.458Z,99.99
2016-09-16T04:39:59.466Z,99.99
2016-09-16T04:41:10.468Z,99.99
2016-09-16T04:42:21.465Z,99.99
2016-09-16T04:43:32.476Z,99.99
2016-09-16T04:44:43.485Z,99.99
2016-09-16T04:45:54.494Z,99.99
2016-09-16T04:47:05.494Z,99.99
2016-09-16T04:48:16.502Z,99.99
2016-09-16T04:49:27.497Z,99.99
2016-09-16T04:50:38.500Z,99.99
2016-09-16T04:51:49.499Z,99.99
2016-09-16T04:53:00.492Z,99.99
2016-09-16T04:54:11.503Z,99.99
2016-09-16T04:55:22.518Z,99.99
2016-09-16T04:56:33.517Z,99.99
2016-09-16T04:57:44.509Z,99.99
2016-09-16T04:58:55.715Z,99.99
2016-09-16T05:00:06.733Z,99.99
2016-09-16T05:01:17.750Z,99.99
2016-09-16T05:02:28.761Z,99.99
2016-09-16T05:03:39.765Z,99.99
2016-09-16T05:04:50.768Z,99.99
2016-09-16T05:06:01.768Z,99.99
2016-09-16T05:07:12.770Z,99.99
2016-09-16T05:08:23.773Z,99.99
2016-09-16T05:09:34.776Z,99.99
2016-09-16T05:10:45.977Z,99.99
2016-09-16T05:11:56.983Z,99.99
2016-09-16T05:13:08.037Z,99.99
2016-09-16T05:14:19.051Z,99.99
2016-09-16T05:15:30.047Z,99.99
2016-09-16T05:16:41.046Z,99.99
2016-09-16T05:17:52.043Z,99.99
2016-09-16T05:19:03.036Z,99.99
2016-09-16T05:20:14.045Z,99.99
2016-09-16T05:21:25.042Z,99.99
2016-09-16T05:22:36.039Z,99.99
2016-09-16T05:23:47.043Z,99.99
2016-09-16T05:24:58.059Z,99.99
2016-09-16T05:26:09.062Z,99.99
2016-09-16T05:27:20.061Z,99.99
2016-09-16T05:28:31.064Z,99.99
2016-09-16T05:29:42.059Z,99.99
2016-09-16T05:30:53.059Z,99.99
2016-09-16T05:32:04.066Z,99.99
2016-09-16T05:33:15.272Z,99.99
2016-09-16T05:34:26.300Z,99.99
2016-09-16T05:35:37.313Z,99.99
2016-09-16T05:36:48.316Z,99.96
2016-09-16T05:37:59.531Z,99.99
2016-09-16T05:39:10.539Z,99.77
2016-09-16T05:40:21.534Z,99.99
2016-09-16T05:41:32.538Z,99.99
2016-09-16T05:42:43.546Z,99.99
2016-09-16T05:43:54.544Z,99.99
2016-09-16T05:45:05.551Z,99.99
2016-09-16T05:46:16.551Z,99.48
2016-09-16T05:47:27.767Z,99.29
2016-09-16T05:48:38.767Z,99.99
2016-09-16T05:49:49.761Z,99.99
2016-09-16T05:51:00.765Z,99.39
2016-09-16T05:52:11.968Z,99.99
2016-09-16T05:53:22.966Z,99.99
2016-09-16T05:54:33.975Z,99.99
2016-09-16T05:55:45.182Z,99.99
2016-09-16T05:56:56.600Z,99.99
2016-09-16T05:58:07.613Z,99.99
2016-09-16T05:59:18.630Z,99.99
2016-09-16T06:00:29.634Z,98.52
2016-09-16T06:01:40.634Z,99.1
2016-09-16T06:02:51.641Z,99.58
2016-09-16T06:04:02.637Z,99.99
2016-09-16T06:05:13.840Z,99.99
2016-09-16T06:06:24.838Z,99.99
2016-09-16T06:07:35.853Z,99.99
2016-09-16T06:08:47.257Z,98.77
2016-09-16T06:09:58.256Z,99.34
2016-09-16T06:11:09.257Z,99.99
2016-09-16T06:12:20.461Z,99.99
2016-09-16T06:13:31.516Z,99.99
2016-09-16T06:14:42.926Z,99.99
2016-09-16T06:15:53.927Z,99.99
2016-09-16T06:17:04.940Z,99.99
2016-09-16T06:18:15.942Z,99.99
2016-09-16T06:19:26.934Z,99.99
2016-09-16T06:20:38.137Z,99.99
2016-09-16T06:21:49.144Z,99.34
2016-09-16T06:23:00.167Z,98.48
2016-09-16T06:24:11.168Z,98.57
2016-09-16T06:25:22.181Z,99.63
2016-09-16T06:26:33.383Z,99.77
2016-09-16T06:27:44.385Z,99.99
2016-09-16T06:28:55.385Z,99.99
2016-09-16T06:30:06.396Z,99.99
2016-09-16T06:31:17.602Z,99.99
2016-09-16T06:32:28.626Z,99.99
2016-09-16T06:33:39.624Z,99.99
2016-09-16T06:34:50.626Z,99.99
2016-09-16T06:36:01.629Z,99.99
2016-09-16T06:37:12.628Z,99.99
2016-09-16T06:38:23.636Z,99.99
2016-09-16T06:39:34.837Z,99.99
2016-09-16T06:40:45.828Z,99.99
2016-09-16T06:41:56.843Z,99.99
2016-09-16T06:43:07.855Z,99.99
2016-09-16T06:44:18.856Z,99.99
2016-09-16T06:45:29.859Z,99.99
2016-09-16T06:46:40.878Z,99.99
2016-09-16T06:47:51.887Z,99.99
2016-09-16T06:49:02.890Z,99.99
2016-09-16T06:50:13.895Z,99.99
2016-09-16T06:51:25.120Z,99.99
2016-09-16T06:52:36.321Z,99.99
2016-09-16T06:53:47.317Z,99.99
2016-09-16T06:54:58.319Z,99.99
2016-09-16T06:56:09.328Z,99.59
2016-09-16T06:57:20.331Z,97.76
2016-09-16T06:58:31.334Z,99.99
2016-09-16T06:59:42.350Z,98.82
2016-09-16T07:00:53.370Z,97.76
2016-09-16T07:02:04.378Z,98.05
2016-09-16T07:03:15.598Z,96.13
2016-09-16T07:04:26.604Z,97.96
2016-09-16T07:05:37.805Z,98.72
2016-09-16T07:06:48.813Z,99.3
2016-09-16T07:07:59.823Z,98.63
2016-09-16T07:09:10.829Z,99.01
2016-09-16T07:10:22.050Z,96.51
2016-09-16T07:11:33.066Z,95.26
2016-09-16T07:12:44.088Z,96.7
2016-09-16T07:13:55.100Z,96.51
2016-09-16T07:15:06.304Z,96.7
2016-09-16T07:16:17.302Z,97.14
2016-09-16T07:17:28.306Z,97.42
2016-09-16T07:18:39.323Z,99.73
2016-09-16T07:19:50.346Z,98.77
2016-09-16T07:21:01.545Z,97.33
2016-09-16T07:22:12.542Z,96.37
2016-09-16T07:23:23.751Z,98.68
2016-09-16T07:24:34.752Z,97.71
2016-09-16T07:25:45.766Z,97.71
2016-09-16T07:26:56.770Z,98.77
2016-09-16T07:28:07.778Z,99.99
2016-09-16T07:29:18.993Z,96.56
2016-09-16T07:30:30.008Z,97.14
2016-09-16T07:31:41.013Z,97.81
2016-09-16T07:32:52.019Z,97.81
2016-09-16T07:34:03.033Z,95.26
2016-09-16T07:35:14.040Z,97.96
2016-09-16T07:36:25.046Z,97.96
2016-09-16T07:37:36.049Z,96.51
2016-09-16T07:38:47.062Z,94.15
2016-09-16T07:39:58.068Z,97.81
2016-09-16T07:41:09.076Z,97.62
2016-09-16T07:42:20.081Z,96.56
2016-09-16T07:43:31.084Z,95.84
2016-09-16T07:44:42.088Z,94.87
2016-09-16T07:45:53.105Z,93.29
2016-09-16T07:47:04.108Z,93.81
2016-09-16T07:48:15.122Z,92.41
2016-09-16T07:49:26.143Z,90.97
2016-09-16T07:50:37.153Z,90.88
2016-09-16T07:51:48.363Z,89.14
2016-09-16T07:52:59.370Z,88.46
2016-09-16T07:54:10.370Z,89.09
2016-09-16T07:55:21.404Z,85.91
2016-09-16T07:56:32.414Z,84.59
2016-09-16T07:57:43.418Z,82.18
2016-09-16T07:58:54.432Z,82.42
2016-09-16T08:00:05.450Z,79.43
2016-09-16T08:01:16.459Z,78.27
2016-09-16T08:02:27.676Z,80.87
2016-09-16T08:03:38.687Z,83.09
2016-09-16T08:04:49.692Z,81.74
2016-09-16T08:06:00.707Z,83.05
2016-09-16T08:07:11.724Z,81.41
2016-09-16T08:08:22.730Z,81.9
2016-09-16T08:09:33.746Z,82.57
2016-09-16T08:10:44.765Z,82.43
2016-09-16T08:11:55.782Z,83.2
2016-09-16T08:13:07.191Z,82.72
2016-09-16T08:14:18.255Z,82.97
2016-09-16T08:15:29.271Z,83.36
2016-09-16T08:16:40.274Z,83.26
2016-09-16T08:17:51.287Z,83.26
2016-09-16T08:19:02.297Z,83.8
2016-09-16T08:20:13.515Z,83.61
2016-09-16T08:21:24.528Z,85.53
2016-09-16T08:22:35.732Z,84.18
2016-09-16T08:23:46.742Z,85.53
2016-09-16T08:24:57.952Z,85.14
2016-09-16T08:26:08.961Z,86.3
2016-09-16T08:27:19.970Z,87.46
2016-09-16T08:28:30.982Z,86.16
2016-09-16T08:29:41.994Z,87.94
2016-09-16T08:30:53.000Z,88.81
2016-09-16T08:32:04.409Z,86.78
2016-09-16T08:33:15.411Z,85.34
2016-09-16T08:34:26.430Z,86.78
2016-09-16T08:35:37.449Z,85.05
2016-09-16T08:36:48.453Z,86.69
2016-09-16T08:37:59.664Z,84.86
2016-09-16T08:39:10.667Z,86.11
2016-09-16T08:40:21.684Z,85.05
2016-09-16T08:41:32.696Z,84.38
2016-09-16T08:42:43.694Z,86.88
2016-09-16T08:43:54.699Z,86.3
2016-09-16T08:45:05.712Z,85.77
2016-09-16T08:46:16.720Z,85.24
2016-09-16T08:47:27.729Z,84.28
2016-09-16T08:48:38.727Z,86.54
2016-09-16T08:49:49.927Z,84.42
2016-09-16T08:51:00.941Z,83.64
2016-09-16T08:52:11.958Z,82.97
2016-09-16T08:53:23.179Z,82.87
2016-09-16T08:54:34.189Z,82.2
2016-09-16T08:55:45.190Z,83.36
2016-09-16T08:56:56.206Z,82.49
2016-09-16T08:58:07.212Z,81.62
2016-09-16T08:59:18.235Z,82.29
2016-09-16T09:00:29.252Z,83.45
2016-09-16T09:01:40.258Z,82.2
2016-09-16T09:02:51.260Z,82.59
2016-09-16T09:04:02.260Z,82.29
2016-09-16T09:05:13.264Z,83.55
2016-09-16T09:06:24.283Z,82.87
2016-09-16T09:07:35.291Z,83.36
2016-09-16T09:08:46.296Z,84.47
2016-09-16T09:09:57.507Z,84.47
2016-09-16T09:11:08.529Z,84.28
2016-09-16T09:12:19.535Z,84.28
2016-09-16T09:13:30.544Z,84.38
2016-09-16T09:14:41.598Z,85.43
2016-09-16T09:15:52.804Z,84.76
2016-09-16T09:17:03.799Z,84.09
2016-09-16T09:18:14.823Z,84.86
2016-09-16T09:19:26.241Z,85.34
2016-09-16T09:20:37.250Z,85.63
2016-09-16T09:21:48.257Z,85.72
2016-09-16T09:22:59.267Z,87.74
2016-09-16T09:24:10.278Z,86.4
2016-09-16T09:25:21.291Z,85.67
2016-09-16T09:26:32.303Z,82.34
2016-09-16T09:27:43.308Z,82.43
2016-09-16T09:28:54.314Z,81.9
2016-09-16T09:30:05.326Z,81.8
2016-09-16T09:31:16.334Z,80.83
2016-09-16T09:32:27.344Z,81.41
2016-09-16T09:33:38.356Z,80.3
2016-09-16T09:34:49.360Z,77.88
2016-09-16T09:36:00.373Z,77
2016-09-16T09:37:11.383Z,74.52
2016-09-16T09:38:22.598Z,75.71
2016-09-16T09:39:33.613Z,74.46
2016-09-16T09:40:44.827Z,74.75
2016-09-16T09:41:56.036Z,76.06
2016-09-16T09:43:07.068Z,76.93
2016-09-16T09:44:18.082Z,74.42
2016-09-16T09:45:29.091Z,74.13
2016-09-16T09:46:40.107Z,74.17
2016-09-16T09:47:51.128Z,74.88
2016-09-16T09:49:02.159Z,73.08
2016-09-16T09:50:13.167Z,70.89
2016-09-16T09:51:24.178Z,69.67
2016-09-16T09:52:35.194Z,69.5
2016-09-16T09:53:46.213Z,70.21
2016-09-16T09:54:57.229Z,67.92
2016-09-16T09:56:08.452Z,65.63
2016-09-16T09:57:19.470Z,65.82
2016-09-16T09:58:30.481Z,65.05
2016-09-16T09:59:41.504Z,64.65
2016-09-16T10:00:52.528Z,64.2
2016-09-16T10:02:03.548Z,65.66
2016-09-16T10:03:14.762Z,65.79
2016-09-16T10:04:25.781Z,65.63
2016-09-16T10:05:36.809Z,62.03
2016-09-16T10:06:47.830Z,61.08
2016-09-16T10:07:58.849Z,61.64
2016-09-16T10:09:10.090Z,61.8
2016-09-16T10:10:21.112Z,61.41
2016-09-16T10:11:32.127Z,61.48
2016-09-16T10:12:43.145Z,62.81
2016-09-16T10:13:54.164Z,64.07
2016-09-16T10:15:05.234Z,63.88
2016-09-16T10:16:16.249Z,62.94
2016-09-16T10:17:27.453Z,61.77
2016-09-16T10:18:38.467Z,62.29
2016-09-16T10:19:49.487Z,60.67
2016-09-16T10:21:01.112Z,59.41
2016-09-16T10:22:12.123Z,60.57
2016-09-16T10:23:23.146Z,61.15
2016-09-16T10:24:34.166Z,61.02
2016-09-16T10:25:45.206Z,62.68
2016-09-16T10:26:56.431Z,61.41
2016-09-16T10:28:07.453Z,60.64
2016-09-16T10:29:18.479Z,60.64
2016-09-16T10:30:29.536Z,60.96
2016-09-16T10:31:40.552Z,61.05
2016-09-16T10:32:51.781Z,60.89
2016-09-16T10:34:02.801Z,60.79
2016-09-16T10:35:13.825Z,60.31
2016-09-16T10:36:24.848Z,61.6
2016-09-16T10:37:35.867Z,61.11
2016-09-16T10:38:46.884Z,60.53
2016-09-16T10:39:58.104Z,60.79
2016-09-16T10:41:09.121Z,60.53
2016-09-16T10:42:20.345Z,59.75
2016-09-16T10:43:31.574Z,59.69
2016-09-16T10:44:42.593Z,56.3
2016-09-16T10:45:53.604Z,55.85
2016-09-16T10:47:04.629Z,57.01
2016-09-16T10:48:15.663Z,55.91
2016-09-16T10:49:26.680Z,56.09
2016-09-16T10:50:37.900Z,57.64
2016-09-16T10:51:48.922Z,57.15
2016-09-16T10:52:59.941Z,57.25
2016-09-16T10:54:10.961Z,57.61
2016-09-16T10:55:22.184Z,56.93
2016-09-16T10:56:33.191Z,56.25
2016-09-16T10:57:44.215Z,58.2
2016-09-16T10:58:55.230Z,59.33
2016-09-16T11:00:06.452Z,57.49
2016-09-16T11:01:17.474Z,57.46
2016-09-16T11:02:28.499Z,58.43
2016-09-16T11:03:39.518Z,57.78
2016-09-16T11:04:50.537Z,57.59
2016-09-16T11:06:01.560Z,57
2016-09-16T11:07:12.599Z,58.2
2016-09-16T11:08:23.617Z,57.49
2016-09-16T11:09:34.641Z,58.26
2016-09-16T11:10:45.656Z,59.31
2016-09-16T11:11:56.681Z,59.31
2016-09-16T11:13:07.705Z,59.47
2016-09-16T11:14:18.722Z,60.61
2016-09-16T11:15:29.791Z,59.25
2016-09-16T11:16:40.809Z,60
2016-09-16T11:17:51.831Z,61.04
2016-09-16T11:19:02.854Z,61.52
2016-09-16T11:20:14.076Z,62.01
2016-09-16T11:21:25.102Z,61.98
2016-09-16T11:22:36.124Z,63.53
2016-09-16T11:23:47.134Z,61.36
2016-09-16T11:24:58.152Z,61.36
2016-09-16T11:26:09.168Z,61.39
2016-09-16T11:27:20.183Z,61.19
2016-09-16T11:28:31.197Z,62.46
2016-09-16T11:29:42.410Z,62.46
2016-09-16T11:30:53.421Z,61.19
2016-09-16T11:32:04.433Z,61.75
2016-09-16T11:33:15.450Z,63.2
2016-09-16T11:34:26.672Z,63.01
2016-09-16T11:35:37.690Z,62.62
2016-09-16T11:36:48.708Z,62.43
2016-09-16T11:37:59.725Z,64.04
2016-09-16T11:39:10.737Z,64.72
2016-09-16T11:40:21.755Z,64.34
2016-09-16T11:41:32.758Z,63.14
2016-09-16T11:42:43.782Z,64.79
2016-09-16T11:43:54.789Z,64.2
2016-09-16T11:45:05.804Z,64.66
2016-09-16T11:46:16.819Z,64.07
2016-09-16T11:47:27.829Z,63.79
2016-09-16T11:48:38.843Z,65.82
2016-09-16T11:49:49.864Z,64.75
2016-09-16T11:51:01.023Z,64.69
2016-09-16T11:52:12.044Z,65.47
2016-09-16T11:53:23.068Z,64.62
2016-09-16T11:54:34.089Z,62.62
2016-09-16T11:55:45.297Z,61.58
2016-09-16T11:56:56.316Z,60.81
2016-09-16T11:58:07.337Z,63.04
2016-09-16T11:59:18.347Z,61.88
2016-09-16T12:00:29.555Z,61.58
2016-09-16T12:01:40.565Z,60.32
2016-09-16T12:02:51.568Z,62.1
2016-09-16T12:04:02.778Z,58.9
2016-09-16T12:05:13.801Z,59.51
2016-09-16T12:06:24.816Z,58.57
2016-09-16T12:07:35.833Z,58.59
2016-09-16T12:08:46.841Z,58.43
2016-09-16T12:09:57.864Z,56.56
2016-09-16T12:11:09.078Z,59.01
2016-09-16T12:12:20.097Z,58.21
2016-09-16T12:13:31.118Z,58.59
2016-09-16T12:14:42.139Z,59.08
2016-09-16T12:15:53.215Z,59.38
2016-09-16T12:17:04.431Z,57.92
2016-09-16T12:18:15.444Z,60.15
2016-09-16T12:19:26.469Z,58.43
2016-09-16T12:20:37.685Z,59.21
2016-09-16T12:21:48.707Z,58.33
2016-09-16T12:22:59.742Z,56.29
2016-09-16T12:24:10.763Z,55.51
2016-09-16T12:25:21.788Z,56
2016-09-16T12:26:32.814Z,57.92
2016-09-16T12:27:43.831Z,58.31
2016-09-16T12:28:55.046Z,58.21
2016-09-16T12:30:06.072Z,58.4
2016-09-16T12:31:17.109Z,59.76
2016-09-16T12:32:28.529Z,60.51
2016-09-16T12:33:39.549Z,59.44
2016-09-16T12:34:50.569Z,59.7
2016-09-16T12:36:01.572Z,61.13
2016-09-16T12:37:12.781Z,61.32
2016-09-16T12:38:23.805Z,62.55
2016-09-16T12:39:34.817Z,63.62
2016-09-16T12:40:45.834Z,66.02
2016-09-16T12:41:57.043Z,64.27
2016-09-16T12:43:08.062Z,63.78
2016-09-16T12:44:19.279Z,64.65
2016-09-16T12:45:30.299Z,62.79
2016-09-16T12:46:41.310Z,63.95
2016-09-16T12:47:52.326Z,63.27
2016-09-16T12:49:03.540Z,64.82
2016-09-16T12:50:14.571Z,63.37
2016-09-16T12:51:25.586Z,67.3
2016-09-16T12:52:36.802Z,63.43
2016-09-16T12:53:47.804Z,63.14
2016-09-16T12:54:58.813Z,65.47
2016-09-16T12:56:10.022Z,65.14
2016-09-16T12:57:21.237Z,63.14
2016-09-16T12:58:32.250Z,64.69
2016-09-16T12:59:43.252Z,66.14
2016-09-16T13:00:54.274Z,67.5
2016-09-16T13:02:05.290Z,65.82
2016-09-16T13:03:16.307Z,65.63
2016-09-16T13:04:27.324Z,67.08
2016-09-16T13:05:38.338Z,66.4
2016-09-16T13:06:49.355Z,64.56
2016-09-16T13:08:00.470Z,66.5
2016-09-16T13:09:11.647Z,65.05
2016-09-16T13:10:22.863Z,67.08
2016-09-16T13:11:34.078Z,66.3
2016-09-16T13:12:45.106Z,67.56
2016-09-16T13:13:56.311Z,67.46
2016-09-16T13:15:07.322Z,67.66
2016-09-16T13:16:18.376Z,68.63
2016-09-16T13:17:29.390Z,67.46
2016-09-16T13:18:40.406Z,66.78
2016-09-16T13:19:51.417Z,66.6
2016-09-16T13:21:02.434Z,67.18
2016-09-16T13:22:13.453Z,65.72
2016-09-16T13:23:24.458Z,65.34
2016-09-16T13:24:35.467Z,65.05
2016-09-16T13:25:46.479Z,64.85
2016-09-16T13:26:57.485Z,66.47
2016-09-16T13:28:08.697Z,65.69
2016-09-16T13:29:19.900Z,66.27
2016-09-16T13:30:30.917Z,66.08
2016-09-16T13:31:41.922Z,65.5
2016-09-16T13:32:52.937Z,67.14
2016-09-16T13:34:03.941Z,66.56
2016-09-16T13:35:15.355Z,65.4
2016-09-16T13:36:26.363Z,67.43
2016-09-16T13:37:37.360Z,65.98
2016-09-16T13:38:48.373Z,65.69
2016-09-16T13:39:59.395Z,66.66
2016-09-16T13:41:10.609Z,66.75
2016-09-16T13:42:21.620Z,67.33
2016-09-16T13:43:32.629Z,66.75
2016-09-16T13:44:43.639Z,66.08
2016-09-16T13:45:54.852Z,65.98
2016-09-16T13:47:05.861Z,66.27
2016-09-16T13:48:16.879Z,65.98
2016-09-16T13:49:27.891Z,65.88
2016-09-16T13:50:38.901Z,65.88
2016-09-16T13:51:50.122Z,66.75
2016-09-16T13:53:01.132Z,65.4
2016-09-16T13:54:12.141Z,65.3
2016-09-16T13:55:23.158Z,66.17
2016-09-16T13:56:34.159Z,65.5
2016-09-16T13:57:45.162Z,67.4
2016-09-16T13:58:56.170Z,68.85
2016-09-16T14:00:07.182Z,68.27
2016-09-16T14:01:18.212Z,67.82
2016-09-16T14:02:29.417Z,67.43
2016-09-16T14:03:40.425Z,66.56
2016-09-16T14:04:51.434Z,66.56
2016-09-16T14:06:02.446Z,66.14
2016-09-16T14:07:13.450Z,65.95
2016-09-16T14:08:24.470Z,67.3
2016-09-16T14:09:35.484Z,66.91
2016-09-16T14:10:46.492Z,66.91
2016-09-16T14:11:57.513Z,66.82
2016-09-16T14:13:08.717Z,67.69
2016-09-16T14:14:19.729Z,66.14
2016-09-16T14:15:30.737Z,66.24
2016-09-16T14:16:41.794Z,66.14
2016-09-16T14:17:52.803Z,67.01
2016-09-16T14:19:03.833Z,68.85
2016-09-16T14:20:14.834Z,67.82
2016-09-16T14:21:25.842Z,65.5
2016-09-16T14:22:36.857Z,65.88
2016-09-16T14:23:48.279Z,66.33
2016-09-16T14:24:59.298Z,65.66
2016-09-16T14:26:10.307Z,65.37
2016-09-16T14:27:21.317Z,65.56
2016-09-16T14:28:32.325Z,66.4
2016-09-16T14:29:43.334Z,67.46
2016-09-16T14:30:54.342Z,67.85
2016-09-16T14:32:05.553Z,67.56
2016-09-16T14:33:16.560Z,66.59
2016-09-16T14:34:27.577Z,66.88
2016-09-16T14:35:38.787Z,66.88
2016-09-16T14:36:49.811Z,66.78
2016-09-16T14:38:01.018Z,66.98
2016-09-16T14:39:12.033Z,67.46
2016-09-16T14:40:23.060Z,66.4
2016-09-16T14:41:34.084Z,66.59
2016-09-16T14:42:45.087Z,66.98
2016-09-16T14:43:56.096Z,67.52
2016-09-16T14:45:07.301Z,68.14
2016-09-16T14:46:18.313Z,69.49
2016-09-16T14:47:29.314Z,68.3
2016-09-16T14:48:40.315Z,68.78
2016-09-16T14:49:51.319Z,67.52
2016-09-16T14:51:02.542Z,67.56
2016-09-16T14:52:13.744Z,67.52
2016-09-16T14:53:24.961Z,66.66
2016-09-16T14:54:35.970Z,66.27
2016-09-16T14:55:46.977Z,66.66
2016-09-16T14:56:57.992Z,67.52
2016-09-16T14:58:08.992Z,68.2
2016-09-16T14:59:19.993Z,66.46
2016-09-16T15:00:31.008Z,66.91
2016-09-16T15:01:42.015Z,66.66
2016-09-16T15:02:53.034Z,66.63
2016-09-16T15:04:04.041Z,66.24
2016-09-16T15:05:15.042Z,67.49
2016-09-16T15:06:26.244Z,67.49
2016-09-16T15:07:37.263Z,67.59
2016-09-16T15:08:48.477Z,68.17
2016-09-16T15:09:59.478Z,67.49
2016-09-16T15:11:10.479Z,66.91
2016-09-16T15:12:21.487Z,67.11
2016-09-16T15:13:32.498Z,67.69
2016-09-16T15:14:43.509Z,68.65
2016-09-16T15:15:54.510Z,68.07
2016-09-16T15:17:05.553Z,66.91
2016-09-16T15:18:16.568Z,66.82